Time;durP1;ratioP1;P1;durP2;ratioP2;P2;SDS_P1;SDS_P2;PMS_P1;PMS_P2;Temp;Humidity;BMP_temperature;BMP_pressure;BME280_temperature;BME280_humidity;BME280_pressure;Samples;Min_cycle;Max_cycle;Signal;HPM_P1;HPM_P2
2022/12/23 00:00:24;;;;;;;8.37;6.50;;;;;;;6.00;99.92;99618.66;1767726;79;21018;-75
2022/12/23 00:02:53;;;;;;;10.73;6.57;;;;;;;5.94;99.95;99616.25;1758017;80;21016;-75
2022/12/23 00:05:20;;;;;;;8.13;5.77;;;;;;;5.90;99.94;99605.95;1773949;80;21500;-75
2022/12/23 00:07:47;;;;;;;7.67;5.73;;;;;;;5.85;100.00;99602.63;1766382;80;20988;-76
2022/12/23 00:10:15;;;;;;;10.37;5.87;;;;;;;5.73;98.90;99602.56;1767861;79;21922;-76
2022/12/23 00:15:27;;;;;;;6.90;5.53;;;;;;;5.46;98.33;99596.42;1772146;80;21003;-74
2022/12/23 00:17:54;;;;;;;7.43;5.67;;;;;;;5.31;97.29;99603.77;1769815;80;20988;-74
2022/12/23 00:20:21;;;;;;;7.87;5.37;;;;;;;5.16;97.30;99606.81;1755278;80;21444;-75
2022/12/23 00:23:03;;;;;;;8.27;5.47;;;;;;;5.06;97.42;99615.28;1758427;80;21137;-76
2022/12/23 00:25:46;;;;;;;11.33;7.23;;;;;;;5.00;97.73;99610.71;1768215;80;21015;-74
2022/12/23 00:28:14;;;;;;;10.40;6.85;;;;;;;4.87;97.88;99608.42;1764417;80;20995;-75
2022/12/23 00:31:01;;;;;;;8.87;6.93;;;;;;;4.89;99.29;99597.56;1758423;80;20988;-75
2022/12/23 00:33:36;;;;;;;10.73;8.20;;;;;;;4.94;99.91;99598.75;1765455;80;21002;-78
2022/12/23 00:36:21;;;;;;;13.30;8.90;;;;;;;4.95;100.00;99595.24;1764504;80;22009;-75
2022/12/23 00:44:21;;;;;;;10.27;7.60;;;;;;;4.88;100.00;99587.23;1771681;80;21080;-75
2022/12/23 00:46:52;;;;;;;8.83;6.93;;;;;;;4.86;100.00;99589.85;1752985;80;21480;-75
2022/12/23 00:52:10;;;;;;;10.90;7.03;;;;;;;4.63;98.44;99587.87;1767655;80;21426;-74
2022/12/23 00:54:37;;;;;;;12.20;8.03;;;;;;;4.47;97.68;99593.05;1776107;80;20972;-74
2022/12/23 00:57:05;;;;;;;12.50;9.07;;;;;;;4.33;96.79;99589.94;1710739;82;21027;-74
2022/12/23 00:59:33;;;;;;;11.33;8.00;;;;;;;4.22;97.30;99583.27;1728750;82;20988;-73
2022/12/23 01:07:31;;;;;;;12.33;8.07;;;;;;;4.07;97.75;99585.36;1691991;84;21560;-75
2022/12/23 01:09:59;;;;;;;9.70;7.03;;;;;;;4.09;99.32;99581.84;1687519;83;21077;-74
2022/12/23 01:12:26;;;;;;;9.93;6.73;;;;;;;4.08;98.78;99573.66;1684106;83;21496;-75
2022/12/23 01:14:53;;;;;;;12.60;8.10;;;;;;;4.07;99.26;99573.69;1699027;82;21142;-75
2022/12/23 01:17:21;;;;;;;20.80;10.20;;;;;;;4.09;99.92;99579.70;1696946;82;21018;-80
2022/12/23 01:19:48;;;;;;;14.00;8.40;;;;;;;4.06;99.42;99574.59;1722710;82;20982;-75
2022/12/23 01:22:15;;;;;;;9.63;7.03;;;;;;;4.05;99.72;99575.45;1734414;82;21449;-75
2022/12/23 01:24:42;;;;;;;12.90;6.60;;;;;;;4.06;99.90;99574.59;1727063;82;21061;-74
2022/12/23 01:27:09;;;;;;;7.83;5.40;;;;;;;4.00;99.17;99570.40;1710927;83;21146;-75
2022/12/23 01:29:36;;;;;;;8.93;6.10;;;;;;;3.92;98.85;99564.09;1705192;83;21011;-74
2022/12/23 01:32:03;;;;;;;9.30;5.90;;;;;;;3.86;98.72;99557.76;1706303;82;21046;-75
2022/12/23 01:34:30;;;;;;;10.97;7.00;;;;;;;3.84;99.12;99559.53;1699997;83;21070;-74
2022/12/23 01:36:57;;;;;;;9.50;6.50;;;;;;;3.85;99.37;99550.00;1715537;82;21051;-75
2022/12/23 01:39:24;;;;;;;7.80;5.60;;;;;;;3.82;99.11;99547.03;1703889;82;21111;-75
2022/12/23 01:44:58;;;;;;;9.40;5.83;;;;;;;3.77;99.52;99544.57;1729721;82;21085;-75
2022/12/23 01:48:14;;;;;;;9.40;5.53;;;;;;;3.80;100.00;99548.38;1691178;83;21047;-75
2022/12/23 01:51:07;;;;;;;28.03;13.47;;;;;;;3.84;100.00;99558.68;1755230;80;20992;-74
2022/12/23 01:53:39;;;;;;;21.73;12.03;;;;;;;3.79;99.61;99549.70;1773869;80;21309;-75
2022/12/23 01:56:30;;;;;;;17.90;10.43;;;;;;;3.78;99.72;99541.53;1759013;80;20915;-74
2022/12/23 02:03:40;;;;;;;12.80;8.17;;;;;;;3.77;99.63;99537.25;1765707;80;21050;-78
2022/12/23 02:04:25;;;;;;;12.83;7.53;;;;;;;3.84;100.00;99533.61;1766409;81;21702;-75
2022/12/23 02:09:39;;;;;;;7.53;5.37;;;;;;;3.85;100.00;99530.56;1765335;80;20972;-78
2022/12/23 02:12:36;;;;;;;8.33;5.83;;;;;;;3.78;99.71;99525.53;1754527;80;21062;-75
2022/12/23 02:18:36;;;;;;;9.73;6.62;;;;;;;3.72;99.94;99524.38;1762489;80;21004;-76
2022/12/23 02:21:42;;;;;;;8.50;5.58;;;;;;;3.74;100.00;99519.14;1768336;80;21325;-75
2022/12/23 02:24:57;;;;;;;7.43;5.30;;;;;;;3.66;99.47;99519.34;1753830;80;21477;-75
2022/12/23 02:27:34;;;;;;;12.50;5.80;;;;;;;3.60;99.70;99511.69;1743866;80;20968;-75
2022/12/23 02:30:32;;;;;;;6.87;5.33;;;;;;;3.51;99.47;99508.86;1763198;80;21066;-75
2022/12/23 02:33:22;;;;;;;9.20;6.33;;;;;;;3.50;99.80;99511.51;1767342;80;21004;-74
2022/12/23 02:36:00;;;;;;;9.85;6.12;;;;;;;3.40;98.91;99508.25;1737794;80;21135;-76
2022/12/23 02:38:45;;;;;;;12.87;6.90;;;;;;;3.33;98.64;99507.55;1766125;80;21556;-75
2022/12/23 02:41:29;;;;;;;20.20;9.60;;;;;;;3.30;98.84;99514.09;1760968;80;21007;-75
2022/12/23 02:44:13;;;;;;;11.23;6.37;;;;;;;3.30;99.14;99510.20;1748130;80;21055;-75
2022/12/23 02:46:54;;;;;;;14.23;7.70;;;;;;;3.30;99.53;99510.20;1746148;80;21233;-76
2022/12/23 02:49:28;;;;;;;13.63;8.93;;;;;;;3.35;100.00;99504.49;1763499;80;21121;-75
2022/12/23 02:51:57;;;;;;;15.00;10.23;;;;;;;3.46;100.00;99507.27;1746016;80;21003;-75
2022/12/23 02:54:35;;;;;;;22.30;11.63;;;;;;;3.64;100.00;99508.16;1773028;80;21008;-74
2022/12/23 02:57:05;;;;;;;15.17;9.47;;;;;;;3.79;100.00;99497.41;1744138;80;21072;-77
2022/12/23 02:59:37;;;;;;;16.07;9.10;;;;;;;3.88;100.00;99500.25;1744789;80;20981;-75
2022/12/23 03:02:04;;;;;;;16.13;10.27;;;;;;;3.88;100.00;99492.90;1769851;80;22073;-75
2022/12/23 03:04:31;;;;;;;15.17;10.17;;;;;;;3.97;100.00;99496.13;1733902;81;21004;-74
2022/12/23 03:06:59;;;;;;;14.87;9.57;;;;;;;4.04;100.00;99490.34;1718478;82;21044;-75
2022/12/23 03:09:53;;;;;;;14.80;9.30;;;;;;;4.12;100.00;99490.16;1734593;82;21059;-75
2022/12/23 03:12:40;;;;;;;15.87;9.17;;;;;;;4.20;100.00;99489.06;1730816;82;20993;-75
2022/12/23 03:15:24;;;;;;;14.83;8.67;;;;;;;4.25;100.00;99495.44;1713461;83;21513;-75
2022/12/23 03:18:04;;;;;;;14.73;9.67;;;;;;;4.32;100.00;99491.78;1701212;83;21075;-75
2022/12/23 03:21:09;;;;;;;13.80;9.53;;;;;;;4.45;100.00;99491.02;1687660;83;21020;-75
2022/12/23 03:23:44;;;;;;;15.13;9.20;;;;;;;4.52;100.00;99495.59;1691192;81;20992;-75
2022/12/23 03:26:22;;;;;;;14.57;9.47;;;;;;;4.59;100.00;99500.58;1750708;80;20984;-75
2022/12/23 03:29:07;;;;;;;14.40;9.10;;;;;;;4.70;100.00;99501.14;1761248;80;21269;-74
2022/12/23 03:31:35;;;;;;;14.97;9.40;;;;;;;4.81;100.00;99500.84;1765924;80;21003;-75
2022/12/23 03:34:12;;;;;;;15.13;9.57;;;;;;;4.91;100.00;99499.70;1760879;80;20994;-75
2022/12/23 03:36:50;;;;;;;17.03;9.57;;;;;;;5.02;100.00;99493.36;1736190;80;21095;-74
2022/12/23 03:39:21;;;;;;;15.00;9.50;;;;;;;5.09;100.00;99496.17;1767770;79;21912;-75
2022/12/23 03:41:59;;;;;;;13.10;8.40;;;;;;;5.16;100.00;99496.41;1771932;79;21565;-75
2022/12/23 03:44:31;;;;;;;16.47;10.43;;;;;;;5.22;100.00;99494.07;1730216;81;21008;-75
2022/12/23 03:47:12;;;;;;;24.30;15.30;;;;;;;5.27;100.00;99485.70;1729604;81;21511;-75
2022/12/23 03:49:45;;;;;;;;;;;;;;;5.30;100.00;99481.70;1660701;85;21078;-75
2022/12/23 03:52:20;;;;;;;17.57;10.87;;;;;;;5.34;100.00;99472.91;1678983;83;20376;-75
2022/12/23 03:54:52;;;;;;;16.13;10.20;;;;;;;5.36;100.00;99479.76;1681490;83;21102;-76
2022/12/23 03:57:26;;;;;;;17.73;10.53;;;;;;;5.38;100.00;99469.33;1663814;83;21504;-75
2022/12/23 03:59:54;;;;;;;16.50;9.97;;;;;;;5.37;100.00;99463.71;1687300;83;21100;-77
2022/12/23 04:02:34;;;;;;;17.83;11.23;;;;;;;5.36;100.00;99462.02;1654655;85;21056;-75
2022/12/23 04:05:16;;;;;;;16.77;10.98;;;;;;;5.35;100.00;99462.93;1678082;83;21479;-75
2022/12/23 04:07:50;;;;;;;15.33;10.40;;;;;;;5.33;100.00;99464.72;1693825;84;21135;-75
2022/12/23 04:10:20;;;;;;;14.77;9.93;;;;;;;5.31;100.00;99463.91;1689450;83;20991;-75
2022/12/23 04:12:48;;;;;;;24.33;15.63;;;;;;;5.31;100.00;99460.01;1688739;83;21558;-75
2022/12/23 04:15:24;;;;;;;22.50;13.27;;;;;;;5.30;100.00;99460.47;1682618;83;21080;-75
2022/12/23 04:17:53;;;;;;;21.60;12.97;;;;;;;5.29;100.00;99456.59;1680940;83;21627;-75
2022/12/23 04:20:20;;;;;;;17.63;11.00;;;;;;;5.28;100.00;99451.86;1681425;84;21639;-75
2022/12/23 04:22:47;;;;;;;21.27;12.03;;;;;;;5.28;100.00;99444.52;1693914;84;21026;-76
2022/12/23 04:25:16;;;;;;;23.60;13.03;;;;;;;5.26;100.00;99447.15;1717718;82;22121;-76
2022/12/23 04:27:44;;;;;;;19.03;12.27;;;;;;;5.25;100.00;99455.85;1704922;83;21623;-78
2022/12/23 04:30:15;;;;;;;17.00;10.93;;;;;;;5.24;100.00;99449.42;1711588;83;21552;-77
2022/12/23 04:32:42;;;;;;;17.53;11.17;;;;;;;5.20;100.00;99444.75;1724062;82;21103;-76
2022/12/23 04:35:10;;;;;;;17.37;10.40;;;;;;;5.22;100.00;99448.61;1724551;82;21096;-75
2022/12/23 04:37:38;;;;;;;16.33;10.70;;;;;;;5.20;100.00;99438.25;1731996;81;21030;-75
2022/12/23 04:40:06;;;;;;;13.73;9.33;;;;;;;5.20;100.00;99444.75;1703925;83;21001;-75
2022/12/23 04:42:33;;;;;;;27.03;15.43;;;;;;;5.20;100.00;99439.55;1712936;83;21577;-75
2022/12/23 04:45:01;;;;;;;15.03;9.80;;;;;;;5.22;100.00;99431.72;1693407;83;21193;-75
2022/12/23 04:47:28;;;;;;;14.03;9.50;;;;;;;5.22;100.00;99427.37;1694884;83;21356;-76
2022/12/23 04:49:55;;;;;;;14.37;9.40;;;;;;;5.21;100.00;99418.31;1691374;82;21044;-75
2022/12/23 04:52:22;;;;;;;14.47;8.73;;;;;;;5.22;100.00;99426.07;1712643;83;21031;-74
2022/12/23 04:54:51;;;;;;;12.43;8.40;;;;;;;5.23;100.00;99429.06;1707792;82;21260;-75
2022/12/23 04:57:18;;;;;;;13.37;8.73;;;;;;;5.24;100.00;99422.98;1681220;83;21136;-74
2022/12/23 04:59:46;;;;;;;11.60;8.23;;;;;;;5.26;100.00;99422.47;1700962;82;21040;-75
2022/12/23 05:02:13;;;;;;;13.83;8.33;;;;;;;5.27;100.00;99427.23;1681520;82;21102;-75
2022/12/23 05:04:40;;;;;;;12.73;8.70;;;;;;;5.28;100.00;99425.88;1694931;83;21044;-75
2022/12/23 05:07:07;;;;;;;12.83;8.90;;;;;;;5.28;100.00;99423.28;1713411;83;21039;-75
2022/12/23 05:09:34;;;;;;;21.93;13.43;;;;;;;5.28;100.00;99421.98;1714860;83;21067;-75
2022/12/23 05:12:01;;;;;;;13.43;9.03;;;;;;;5.29;100.00;99418.92;1715134;83;21089;-74
2022/12/23 05:14:28;;;;;;;12.97;8.60;;;;;;;5.28;100.00;99415.94;1691876;83;21029;-75
2022/12/23 05:16:56;;;;;;;11.73;8.47;;;;;;;5.27;100.00;99415.09;1708745;83;21530;-76
2022/12/23 05:19:23;;;;;;;15.03;10.23;;;;;;;5.27;100.00;99416.84;1697074;83;21529;-79
2022/12/23 05:21:50;;;;;;;14.60;9.10;;;;;;;5.25;100.00;99416.03;1697584;82;21008;-80
2022/12/23 05:24:17;;;;;;;12.30;8.80;;;;;;;5.25;100.00;99410.38;1702947;83;21024;-74
2022/12/23 05:26:48;;;;;;;13.00;9.17;;;;;;;5.23;100.00;99405.67;1690120;83;20990;-75
2022/12/23 05:29:15;;;;;;;14.37;10.20;;;;;;;5.25;100.00;99402.59;1690514;83;21084;-75
2022/12/23 05:31:42;;;;;;;17.40;9.97;;;;;;;5.24;100.00;99399.60;1717588;82;21349;-74
2022/12/23 05:34:09;;;;;;;13.63;8.47;;;;;;;5.27;100.00;99403.86;1759255;80;21330;-75
2022/12/23 05:36:36;;;;;;;11.37;8.10;;;;;;;5.27;100.00;99399.50;1758271;81;20999;-75
2022/12/23 05:39:03;;;;;;;12.70;8.00;;;;;;;5.29;100.00;99404.63;1751863;81;20985;-75
2022/12/23 05:41:30;;;;;;;11.10;7.87;;;;;;;5.30;100.00;99407.20;1763900;81;21040;-75
2022/12/23 05:43:57;;;;;;;13.13;8.80;;;;;;;5.32;100.00;99409.73;1770098;80;20989;-75
2022/12/23 05:46:24;;;;;;;12.83;8.73;;;;;;;5.33;100.00;99410.16;1769413;81;21530;-75
2022/12/23 05:48:51;;;;;;;11.67;8.43;;;;;;;5.32;100.00;99411.03;1765965;81;21008;-75
2022/12/23 05:51:18;;;;;;;12.67;8.90;;;;;;;5.32;100.00;99411.03;1769539;81;20989;-84
2022/12/23 05:53:45;;;;;;;13.33;8.87;;;;;;;5.30;100.00;99403.75;1735359;81;21504;-76
2022/12/23 05:56:12;;;;;;;13.00;9.23;;;;;;;5.31;100.00;99406.74;1754499;79;21031;-85
2022/12/23 05:58:39;;;;;;;14.57;8.43;;;;;;;5.31;100.00;99402.39;1766358;80;21164;-85
2022/12/23 06:01:06;;;;;;;13.90;8.30;;;;;;;5.31;100.00;99406.74;1769409;81;21478;-84
2022/12/23 06:03:33;;;;;;;13.17;8.87;;;;;;;5.31;100.00;99400.25;1764297;81;21000;-83
2022/12/23 06:06:00;;;;;;;13.17;8.97;;;;;;;5.29;100.00;99393.81;1769336;80;21603;-85
2022/12/23 06:08:27;;;;;;;13.10;9.27;;;;;;;5.29;100.00;99399.02;1763959;80;21007;-81
2022/12/23 06:10:55;;;;;;;12.60;8.80;;;;;;;5.27;100.00;99394.31;1768045;80;21122;-75
2022/12/23 06:13:22;;;;;;;12.03;9.00;;;;;;;5.26;100.00;99393.89;1768931;80;21545;-77
2022/12/23 06:15:49;;;;;;;13.60;9.47;;;;;;;5.26;100.00;99401.68;1768871;81;21424;-75
2022/12/23 06:18:16;;;;;;;12.90;9.43;;;;;;;5.25;100.00;99397.84;1769110;80;21022;-78
2022/12/23 06:20:47;;;;;;;14.90;10.03;;;;;;;5.25;100.00;99401.30;1768939;81;21022;-83
2022/12/23 06:23:14;;;;;;;14.60;9.27;;;;;;;5.25;100.00;99410.38;1768757;80;21152;-74
2022/12/23 06:25:41;;;;;;;13.53;9.87;;;;;;;5.26;100.00;99403.44;1767029;81;22076;-73
2022/12/23 06:28:08;;;;;;;14.10;9.83;;;;;;;5.25;100.00;99406.94;1769053;79;21015;-76
2022/12/23 06:30:35;;;;;;;13.43;9.97;;;;;;;5.24;100.00;99403.95;1764873;79;21027;-80
2022/12/23 06:33:01;;;;;;;13.50;9.93;;;;;;;5.25;100.00;99403.89;1766075;81;21003;-78
2022/12/23 06:35:29;;;;;;;14.00;9.63;;;;;;;5.26;100.00;99404.73;1767359;79;21117;-78
2022/12/23 06:37:56;;;;;;;13.40;9.27;;;;;;;5.25;100.00;99409.09;1769032;80;21003;-79
2022/12/23 06:40:23;;;;;;;12.80;9.63;;;;;;;5.26;100.00;99410.77;1768191;80;21107;-79
2022/12/23 06:42:49;;;;;;;14.47;9.83;;;;;;;5.27;100.00;99407.30;1769008;80;21616;-78
2022/12/23 06:45:17;;;;;;;14.00;9.47;;;;;;;5.30;100.00;99414.15;1767910;79;22071;-76
2022/12/23 06:47:44;;;;;;;13.47;8.63;;;;;;;5.32;100.00;99416.23;1768555;81;21107;-78
2022/12/23 06:50:11;;;;;;;13.83;9.77;;;;;;;5.32;100.00;99412.33;1768433;80;21054;-81
2022/12/23 06:52:38;;;;;;;15.93;9.73;;;;;;;5.32;100.00;99415.80;1767078;80;21026;-80
2022/12/23 06:55:05;;;;;;;14.00;9.03;;;;;;;5.32;100.00;99414.50;1768619;79;21503;-81
2022/12/23 06:57:32;;;;;;;12.43;8.90;;;;;;;5.33;100.00;99410.16;1768909;80;21550;-73
2022/12/23 06:59:59;;;;;;;13.77;9.00;;;;;;;5.34;100.00;99420.94;1768167;80;21123;-80
2022/12/23 07:02:26;;;;;;;12.13;8.53;;;;;;;5.34;100.00;99417.88;1768678;79;21480;-80
2022/12/23 07:04:53;;;;;;;14.03;9.60;;;;;;;5.35;100.00;99418.30;1768877;81;20987;-86
2022/12/23 07:07:20;;;;;;;13.07;9.10;;;;;;;5.35;100.00;99421.36;1768781;80;21004;-90
2022/12/23 07:09:47;;;;;;;11.97;9.13;;;;;;;5.36;100.00;99416.55;1768357;79;21022;-81
2022/12/23 07:12:14;;;;;;;11.67;8.83;;;;;;;5.36;100.00;99413.95;1767713;81;21941;-86
2022/12/23 07:14:41;;;;;;;15.67;9.70;;;;;;;5.37;100.00;99417.78;1770194;80;21730;-87
2022/12/23 07:17:08;;;;;;;14.07;9.73;;;;;;;5.39;100.00;99415.15;1767963;81;21048;-84
2022/12/23 07:19:35;;;;;;;22.43;10.17;;;;;;;5.40;100.00;99412.94;1768041;80;21038;-81
2022/12/23 07:22:02;;;;;;;15.17;8.10;;;;;;;5.41;100.00;99407.32;1768166;80;21970;-80
2022/12/23 07:24:29;;;;;;;16.53;8.70;;;;;;;5.43;100.00;99415.47;1768213;79;21120;-76
2022/12/23 07:26:56;;;;;;;14.93;8.27;;;;;;;5.46;100.00;99409.30;1766299;80;21612;-86
2022/12/23 07:29:23;;;;;;;61.27;24.20;;;;;;;5.47;100.00;99414.46;1767972;80;20943;-80
2022/12/23 07:31:50;;;;;;;76.27;24.47;;;;;;;5.50;100.00;99413.52;1768726;80;21073;-78
2022/12/23 07:34:17;;;;;;;52.47;18.47;;;;;;;5.52;100.00;99417.77;1772662;80;21066;-80
2022/12/23 07:36:44;;;;;;;11.30;8.37;;;;;;;5.55;100.00;99414.22;1767793;80;21583;-90
2022/12/23 07:39:11;;;;;;;12.70;7.47;;;;;;;5.57;100.00;99414.57;1767237;80;21634;-79
2022/12/23 07:41:38;;;;;;;11.20;7.43;;;;;;;5.59;100.00;99412.75;1765932;80;21003;-80
2022/12/23 07:44:07;;;;;;;11.40;8.60;;;;;;;5.61;100.00;99410.57;1767070;80;21437;-84
2022/12/23 07:46:34;;;;;;;12.03;7.47;;;;;;;5.62;100.00;99409.66;1767872;80;21002;-85
2022/12/23 07:49:01;;;;;;;9.43;6.90;;;;;;;5.65;100.00;99407.80;1767817;80;21758;-80
2022/12/23 07:51:28;;;;;;;10.60;7.13;;;;;;;5.68;100.00;99414.66;1766206;79;21014;-80
2022/12/23 07:53:55;;;;;;;10.70;7.13;;;;;;;5.71;100.00;99406.75;1767162;80;21467;-78
2022/12/23 07:56:23;;;;;;;7.87;6.37;;;;;;;5.73;100.00;99414.90;1769365;80;21524;-86
2022/12/23 07:58:52;;;;;;;12.17;7.60;;;;;;;5.75;100.00;99416.16;1768724;80;21011;-80
2022/12/23 08:01:20;;;;;;;12.60;7.47;;;;;;;5.76;100.00;99407.45;1769995;80;21127;-84
2022/12/23 08:03:47;;;;;;;12.73;6.90;;;;;;;5.78;100.00;99412.16;1770114;80;21580;-78
2022/12/23 08:06:16;;;;;;;13.97;8.37;;;;;;;5.77;100.00;99413.91;1771305;80;20987;-84
2022/12/23 08:08:45;;;;;;;18.20;8.10;;;;;;;5.77;100.00;99413.91;1769032;81;20958;-88
2022/12/23 08:11:14;;;;;;;11.83;6.80;;;;;;;5.77;100.00;99411.31;1771909;80;21371;-88
2022/12/23 08:13:44;;;;;;;14.20;8.00;;;;;;;5.76;100.00;99410.92;1776325;80;22033;-79
2022/12/23 08:16:12;;;;;;;12.78;7.33;;;;;;;5.77;100.00;99405.27;1766089;80;21007;-84
2022/12/23 08:18:40;;;;;;;14.93;7.53;;;;;;;5.78;100.00;99409.10;1768004;80;21003;-81
2022/12/23 08:21:18;;;;;;;12.10;6.90;;;;;;;5.79;100.00;99411.25;1767308;80;21003;-74
2022/12/23 08:23:47;;;;;;;9.87;6.63;;;;;;;5.81;100.00;99415.50;1764388;80;21015;-76
2022/12/23 08:26:22;;;;;;;14.53;7.30;;;;;;;5.81;100.00;99406.39;1773767;80;22942;-77
2022/12/23 08:28:54;;;;;;;10.30;6.33;;;;;;;5.84;100.00;99405.90;1769742;80;21485;-79
2022/12/23 08:31:24;;;;;;;15.98;8.13;;;;;;;5.85;100.00;99400.66;1766434;80;21018;-77
2022/12/23 08:33:55;;;;;;;9.70;6.27;;;;;;;5.88;100.00;99407.06;1768789;80;21011;-75
2022/12/23 08:36:29;;;;;;;11.10;6.10;;;;;;;5.91;100.00;99403.50;1767549;80;21019;-75
2022/12/23 08:38:59;;;;;;;8.47;5.83;;;;;;;5.93;100.00;99399.98;1769951;80;21822;-73
2022/12/23 08:41:30;;;;;;;12.63;8.08;;;;;;;5.96;100.00;99407.69;1766817;80;21509;-81
2022/12/23 08:43:58;;;;;;;10.67;7.27;;;;;;;5.99;100.00;99402.38;1771745;80;21790;-80
2022/12/23 08:46:25;;;;;;;9.60;6.20;;;;;;;6.02;100.00;99406.63;1774682;80;21019;-79
2022/12/23 08:48:53;;;;;;;9.03;6.47;;;;;;;6.03;100.00;99405.70;1766984;80;21014;-79
2022/12/23 08:51:22;;;;;;;8.47;6.27;;;;;;;6.05;100.00;99397.86;1767405;81;21038;-73
2022/12/23 08:53:50;;;;;;;8.47;6.03;;;;;;;6.05;100.00;99400.47;1766963;80;21447;-74
2022/12/23 08:56:20;;;;;;;9.53;5.80;;;;;;;6.06;100.00;99396.50;1767836;80;21039;-72
2022/12/23 08:58:51;;;;;;;8.60;5.50;;;;;;;6.06;100.00;99393.05;1774628;80;21043;-75
2022/12/23 09:01:22;;;;;;;7.07;4.97;;;;;;;6.06;100.00;99393.89;1764507;80;21244;-79
2022/12/23 09:03:51;;;;;;;7.20;5.60;;;;;;;6.08;100.00;99397.76;1773290;80;21121;-78
2022/12/23 09:06:22;;;;;;;7.07;4.97;;;;;;;6.08;100.00;99397.30;1771329;80;21512;-75
2022/12/23 09:08:50;;;;;;;10.03;6.17;;;;;;;6.09;100.00;99398.14;1775109;80;21023;-76
2022/12/23 09:11:21;;;;;;;14.80;7.47;;;;;;;6.09;100.00;99400.29;1776942;80;21003;-77
2022/12/23 09:13:48;;;;;;;15.13;7.03;;;;;;;6.11;100.00;99404.15;1769055;80;21022;-80
2022/12/23 09:16:17;;;;;;;12.30;6.20;;;;;;;6.11;100.00;99404.99;1765908;80;21772;-78
2022/12/23 09:18:44;;;;;;;8.50;5.67;;;;;;;6.13;100.00;99401.05;1769793;80;20983;-78
2022/12/23 09:21:17;;;;;;;8.07;5.67;;;;;;;6.17;100.00;99404.77;1764619;80;21492;-77
2022/12/23 09:23:45;;;;;;;7.70;5.63;;;;;;;6.23;100.00;99405.01;1771153;80;21472;-82
2022/12/23 09:26:22;;;;;;;8.63;5.47;;;;;;;6.28;100.00;99404.40;1772409;80;21427;-85
2022/12/23 09:28:49;;;;;;;7.77;5.77;;;;;;;6.33;100.00;99397.28;1751697;80;21962;-84
2022/12/23 09:31:16;;;;;;;8.53;5.73;;;;;;;6.41;100.00;99399.62;1771434;80;21014;-75
2022/12/23 09:33:49;;;;;;;9.47;6.07;;;;;;;6.48;100.00;99398.47;1766982;80;21062;-81
2022/12/23 09:36:17;;;;;;;9.27;6.43;;;;;;;6.55;100.00;99396.06;1774083;80;21255;-79
2022/12/23 09:38:44;;;;;;;10.70;7.07;;;;;;;6.64;100.00;99400.92;1768608;80;21408;-77
2022/12/23 09:41:32;;;;;;;9.93;6.53;;;;;;;6.73;100.00;99391.06;1766995;80;21252;-75
2022/12/23 09:44:27;;;;;;;13.63;6.97;;;;;;;6.81;100.00;99395.08;1766611;81;20942;-81
2022/12/23 09:46:59;;;;;;;11.80;6.93;;;;;;;6.90;100.00;99399.09;1766105;80;21015;-81
2022/12/23 09:49:27;;;;;;;10.47;6.43;;;;;;;6.96;100.00;99400.18;1742304;80;21022;-83
2022/12/23 09:52:01;;;;;;;11.07;6.93;;;;;;;6.98;100.00;99399.64;1764943;80;21563;-81
2022/12/23 09:54:38;;;;;;;8.97;7.03;;;;;;;6.99;100.00;99400.06;1773065;80;21124;-79
2022/12/23 09:57:31;;;;;;;10.57;6.80;;;;;;;6.98;100.00;99398.80;1766942;80;21026;-81
2022/12/23 10:00:06;;;;;;;8.93;6.53;;;;;;;6.98;100.00;99394.44;1773905;80;21011;-82
2022/12/23 10:02:59;;;;;;;9.97;6.50;;;;;;;7.00;100.00;99403.51;1768945;80;21042;-79
2022/12/23 10:06:02;;;;;;;10.60;6.70;;;;;;;7.02;100.00;99396.49;1768103;80;21527;-82
2022/12/23 10:08:47;;;;;;;8.60;5.87;;;;;;;7.04;100.00;99398.56;1764651;80;22157;-80
2022/12/23 10:11:20;;;;;;;8.63;5.53;;;;;;;7.09;100.00;99408.36;1766182;80;21023;-80
2022/12/23 10:13:57;;;;;;;8.70;5.60;;;;;;;7.12;100.00;99406.94;1774121;80;21473;-76
2022/12/23 10:16:35;;;;;;;8.53;4.80;;;;;;;7.18;100.00;99413.23;1767264;80;21478;-76
2022/12/23 10:19:19;;;;;;;7.77;4.53;;;;;;;7.24;100.00;99414.29;1766692;80;21030;-76
2022/12/23 10:21:54;;;;;;;4.93;3.30;;;;;;;7.33;100.00;99414.37;1772656;80;22793;-76
2022/12/23 10:24:31;;;;;;;3.40;2.57;;;;;;;7.45;100.00;99413.03;1776766;80;21481;-78
2022/12/23 10:27:24;;;;;;;5.10;2.93;;;;;;;7.60;100.00;99415.04;1768864;80;21003;-80
2022/12/23 10:29:52;;;;;;;5.07;2.70;;;;;;;7.72;100.00;99410.61;1731791;82;21035;-78
2022/12/23 10:32:51;;;;;;;3.30;2.03;;;;;;;7.83;100.00;99409.72;1705817;83;21052;-79
2022/12/23 10:35:46;;;;;;;6.43;3.53;;;;;;;7.92;100.00;99411.55;1698930;83;21490;-75
2022/12/23 10:38:27;;;;;;;2.93;1.83;;;;;;;8.01;100.00;99413.33;1702444;83;21217;-75
2022/12/23 10:41:31;;;;;;;7.23;2.37;;;;;;;8.07;100.00;99405.70;1711039;83;21004;-72
2022/12/23 10:44:50;;;;;;;3.57;1.87;;;;;;;8.14;100.00;99407.58;1706827;83;20997;-75
2022/12/23 10:47:36;;;;;;;13.17;8.10;;;;;;;8.21;100.00;99420.77;1708058;83;21596;-82
2022/12/23 10:50:35;;;;;;;2.97;1.87;;;;;;;8.26;100.00;99418.34;1711033;82;21088;-73
2022/12/23 10:53:07;;;;;;;3.50;2.60;;;;;;;8.32;100.00;99419.00;1763841;80;21023;-73
2022/12/23 10:55:41;;;;;;;2.53;1.43;;;;;;;8.39;100.00;99419.14;1773320;80;21034;-74
2022/12/23 10:58:17;;;;;;;3.83;1.90;;;;;;;8.44;100.00;99420.63;1769553;80;21014;-73
2022/12/23 11:01:00;;;;;;;3.47;2.00;;;;;;;8.53;100.00;99422.45;1768921;80;21426;-78
2022/12/23 11:03:58;;;;;;;3.13;2.10;;;;;;;8.56;100.00;99422.31;1770787;80;21757;-71
2022/12/23 11:06:26;;;;;;;2.53;1.90;;;;;;;8.60;100.00;99419.97;1773935;80;21043;-72
2022/12/23 11:08:55;;;;;;;9.07;3.93;;;;;;;8.63;100.00;99418.06;1768647;80;21000;-80
2022/12/23 11:11:22;;;;;;;5.73;3.60;;;;;;;8.67;100.00;99409.19;1771212;80;21087;-79
2022/12/23 11:13:49;;;;;;;4.00;2.90;;;;;;;8.70;100.00;99418.19;1777962;80;21429;-75
2022/12/23 11:16:26;;;;;;;5.10;2.53;;;;;;;8.73;100.00;99418.52;1773755;80;21114;-76
2022/12/23 11:19:04;;;;;;;3.00;2.13;;;;;;;8.81;100.00;99410.30;1784606;80;21002;-75
2022/12/23 11:21:32;;;;;;;25.20;14.97;;;;;;;8.96;100.00;99411.38;1776435;80;21540;-80
2022/12/23 11:24:20;;;;;;;6.97;5.03;;;;;;;9.05;100.00;99407.02;1777621;80;21006;-80
2022/12/23 11:27:05;;;;;;;3.57;1.53;;;;;;;9.08;100.00;99414.72;1778325;80;21237;-71
2022/12/23 11:29:42;;;;;;;3.10;1.43;;;;;;;9.07;100.00;99404.73;1776211;80;21145;-75
2022/12/23 11:32:27;;;;;;;2.67;1.40;;;;;;;9.14;100.00;99402.23;1781001;78;21003;-76
2022/12/23 11:34:55;;;;;;;3.23;2.20;;;;;;;9.28;100.00;99394.17;1777244;80;21014;-78
2022/12/23 11:37:38;;;;;;;10.83;7.47;;;;;;;9.29;100.00;99394.58;1779517;80;21014;-74
2022/12/23 11:40:14;;;;;;;7.63;5.80;;;;;;;9.31;100.00;99407.97;1777993;80;21031;-74
2022/12/23 11:42:42;;;;;;;2.40;1.50;;;;;;;9.39;100.00;99411.50;1762784;78;21086;-77
2022/12/23 11:45:09;;;;;;;3.20;1.40;;;;;;;9.44;100.00;99400.36;1774836;80;21464;-73
2022/12/23 11:47:40;;;;;;;6.03;3.90;;;;;;;9.53;100.00;99396.45;1782041;80;21018;-74
2022/12/23 11:50:35;;;;;;;1.93;1.00;;;;;;;9.63;100.00;99395.08;1775430;78;21058;-79
2022/12/23 11:53:23;;;;;;;2.47;1.15;;;;;;;9.63;100.00;99398.17;1780727;80;21014;-74
2022/12/23 11:56:02;;;;;;;1.70;1.30;;;;;;;9.59;100.00;99399.63;1775222;78;21295;-79
2022/12/23 11:58:32;;;;;;;1.60;1.00;;;;;;;9.52;100.00;99396.91;1784524;80;20998;-72
2022/12/23 12:01:03;;;;;;;2.87;1.50;;;;;;;9.48;100.00;99388.84;1779494;80;21658;-77
2022/12/23 12:03:34;;;;;;;1.97;1.10;;;;;;;9.48;100.00;99398.47;1779966;80;21009;-77
2022/12/23 12:06:04;;;;;;;2.25;1.17;;;;;;;9.42;100.00;99399.58;1776285;80;21018;-77
2022/12/23 12:08:35;;;;;;;;;;;;;;;9.40;100.00;99403.22;1783406;78;21825;-80
2022/12/23 12:11:15;;;;;;;1.52;1.20;;;;;;;9.34;100.00;99401.74;1776766;78;20204;-81
2022/12/23 12:13:44;;;;;;;;;;;;;;;9.32;100.00;99404.42;1782514;80;21420;-81
2022/12/23 12:16:31;;;;;;;3.00;2.33;;;;;;;9.34;100.00;99403.89;1776716;80;20179;-74
2022/12/23 12:19:03;;;;;;;2.30;1.43;;;;;;;9.32;100.00;99404.42;1775213;80;21118;-74
2022/12/23 12:21:34;;;;;;;7.10;5.03;;;;;;;9.29;100.00;99405.87;1777570;80;21934;-72
2022/12/23 12:24:15;;;;;;;1.43;1.10;;;;;;;9.25;100.00;99410.00;1777440;80;21068;-71